Cruz Sagrada — CUHG3 — position and weather

sailwx.info

Track history (hours):
 
Tides and Currents Weather Stations Pressure Air Temp Water Temp Dewpoint Dewpoint Depression Visibility Wind Speed Wind Dir Waves Ship Positions

Cruz Sagrada

Last reported at 2017-Dec-10 23:05 UTC. Time now 2017-Dec-11 19:14 UTC.
Position N 38°26' W 009°07'.

Length 18 m.

Type: Fishing. MMSI: 263290000.

Date/timePositionNaut miles runAvg speedWind from/ knotsBaromVisibWave heightAir tempDewpointWater temp
2017-Dec-10 23:05N 38°26' W 009°07'0 0.0
2017-Dec-10 22:47N 38°26' W 009°07'0 0.0
2017-Dec-10 22:30N 38°26' W 009°07'0 0.0
2017-Dec-10 21:53N 38°26' W 009°07'0 0.0
2017-Dec-10 21:29N 38°26' W 009°07'0 0.0
2017-Dec-10 20:58N 38°26' W 009°07'0 0.0
2017-Dec-10 20:29N 38°26' W 009°07'0 0.0
2017-Dec-10 19:55N 38°26' W 009°07'0 0.0
2017-Dec-10 19:29N 38°26' W 009°07'0 0.0
2017-Dec-10 18:59N 38°26' W 009°07'0 0.0
2017-Dec-10 18:30N 38°26' W 009°07'0 0.0
2017-Dec-10 17:59N 38°26' W 009°07'0 0.2
2017-Dec-10 17:30N 38°26' W 009°07'3 5.8
2017-Dec-10 16:59N 38°24' W 009°07'4 6.1
2017-Dec-10 16:23N 38°20' W 009°09'2 4.3
2017-Dec-10 16:00N 38°18' W 009°09'1 2.0
2017-Dec-10 15:30N 38°18' W 009°07'1 1.0
2017-Dec-10 14:57N 38°18' W 009°08'0 0.8
2017-Dec-10 14:30N 38°18' W 009°08'1 1.1
2017-Dec-10 13:57N 38°19' W 009°09'1 1.2
2017-Dec-10 13:30N 38°19' W 009°09'1 1.4
2017-Dec-10 12:53N 38°20' W 009°10'2 6.1
2017-Dec-10 12:29N 38°22' W 009°11'3 6.0
2017-Dec-10 12:00N 38°24' W 009°14'3 6.4
2017-Dec-10 11:29N 38°26' W 009°17'3 6.6
2017-Dec-10 11:00N 38°29' W 009°19'4 6.7
2017-Dec-10 10:29N 38°32' W 009°21'3 6.8
2017-Dec-10 10:00N 38°35' W 009°23'3 6.6
2017-Dec-10 09:30N 38°38' W 009°25'1 1.7
2017-Dec-10 09:00N 38°39' W 009°26'1 1.3
2017-Dec-10 08:30N 38°39' W 009°26'0 0.7
2017-Dec-10 08:00N 38°40' W 009°26'1 1.1
2017-Dec-10 07:30N 38°39' W 009°26'1 1.1
2017-Dec-10 07:01N 38°39' W 009°25'1 1.1
2017-Dec-10 06:30N 38°38' W 009°25'1 1.2
2017-Dec-10 06:00N 38°38' W 009°24'1 1.2
2017-Dec-10 05:31N 38°37' W 009°24'0 0.5
2017-Dec-10 05:00N 38°37' W 009°24'1 1.4
2017-Dec-10 04:30N 38°38' W 009°25'0 0.8
2017-Dec-10 04:00N 38°38' W 009°25'0 0.2
2017-Dec-10 03:29N 38°38' W 009°25'0 0.8
2017-Dec-10 03:00N 38°38' W 009°26'1 1.6
2017-Dec-10 02:30N 38°37' W 009°25'0 0.7
2017-Dec-10 02:00N 38°37' W 009°25'0 0.6
2017-Dec-10 01:30N 38°37' W 009°26'1 1.6
2017-Dec-10 01:00N 38°37' W 009°25'2 3.5
2017-Dec-10 00:30N 38°35' W 009°24'2 3.7
2017-Dec-10 00:00N 38°34' W 009°23'2 3.7
2017-Dec-09 23:30N 38°32' W 009°21'2 3.7
2017-Dec-09 23:00N 38°30' W 009°20'2 3.9
2017-Dec-09 22:30N 38°29' W 009°19'2 3.9
2017-Dec-09 22:00N 38°27' W 009°18'2 3.8
2017-Dec-09 21:27N 38°25' W 009°16'2 4.1
2017-Dec-09 20:59N 38°24' W 009°15'2 4.7
2017-Dec-09 20:30N 38°22' W 009°13'3 5.0
2017-Dec-09 20:00N 38°20' W 009°10'3 5.0
2017-Dec-09 19:22N 38°18' W 009°08'2 4.8
2017-Dec-09 19:00N 38°17' W 009°06'1 0.3
2017-Dec-09 14:10N 38°16' W 009°04'2 4.9
2017-Dec-09 13:48N 38°17' W 009°06'4 5.7
2017-Dec-09 13:08N 38°20' W 009°10'1 6.7
2017-Dec-09 12:56N 38°21' W 009°11'3 6.6
2017-Dec-09 12:30N 38°22' W 009°14'3 6.6
2017-Dec-09 12:00N 38°25' W 009°17'3 6.5
2017-Dec-09 11:30N 38°28' W 009°19'3 6.6
2017-Dec-09 11:00N 38°31' W 009°20'3 6.5
2017-Dec-09 10:30N 38°34' W 009°22'3 7.1
2017-Dec-09 10:00N 38°37' W 009°24'3 6.4
2017-Dec-09 09:30N 38°40' W 009°26'3 5.6
2017-Dec-09 09:00N 38°37' W 009°24'1 1.4
2017-Dec-09 08:30N 38°38' W 009°25'0 0.9
2017-Dec-09 08:00N 38°38' W 009°25'1 1.3
2017-Dec-09 07:30N 38°39' W 009°25'1 1.1
2017-Dec-09 07:00N 38°39' W 009°26'0 0.9
2017-Dec-09 06:30N 38°39' W 009°25'1 1.3
2017-Dec-09 06:00N 38°38' W 009°25'1 1.4
2017-Dec-09 05:30N 38°38' W 009°24'4 0.3
2017-Dec-08 14:47N 38°42' W 009°25'0 0.0
2017-Dec-08 14:30N 38°42' W 009°25'0 0.0
2017-Dec-08 13:59N 38°42' W 009°25'0 0.0
2017-Dec-08 13:30N 38°42' W 009°25'0 0.0
2017-Dec-08 13:00N 38°42' W 009°25'0 0.1
2017-Dec-08 12:30N 38°42' W 009°25'0 0.0
2017-Dec-08 12:00N 38°42' W 009°25'0 0.0
2017-Dec-08 11:30N 38°42' W 009°25'0 0.0
2017-Dec-08 11:00N 38°42' W 009°25'0 0.1
2017-Dec-08 10:30N 38°42' W 009°25'0 0.7
2017-Dec-08 10:00N 38°42' W 009°25'3 5.8
2017-Dec-08 09:30N 38°39' W 009°24'1 1.5
2017-Dec-08 09:00N 38°39' W 009°25'2 3.3
2017-Dec-08 08:30N 38°37' W 009°24'2 4.7
2017-Dec-08 08:00N 38°35' W 009°23'3 5.4
2017-Dec-08 07:29N 38°33' W 009°21'2 4.8
2017-Dec-08 07:00N 38°31' W 009°20'2 4.4
2017-Dec-08 06:29N 38°29' W 009°18'3 5.4
2017-Dec-08 06:00N 38°27' W 009°17'3 5.6
2017-Dec-08 05:30N 38°24' W 009°15'3 5.6
2017-Dec-08 04:59N 38°23' W 009°11'3 5.6
2017-Dec-08 04:30N 38°22' W 009°08'3 5.8
2017-Dec-08 04:00N 38°21' W 009°05'1 2.8
2017-Dec-08 03:30N 38°20' W 009°03'0 0.6
2017-Dec-08 03:00N 38°20' W 009°04'2 0.7
2017-Dec-07 23:50N 38°21' W 009°06'2 5.7
2017-Dec-07 23:31N 38°23' W 009°06'3 5.8
2017-Dec-07 23:00N 38°26' W 009°06'1 1.4
2017-Dec-07 22:30N 38°26' W 009°07'0 0.0
2017-Dec-07 22:00N 38°26' W 009°07'0 0.0
2017-Dec-07 21:31N 38°26' W 009°07'0 0.0
2017-Dec-07 21:00N 38°26' W 009°07'0 0.0
2017-Dec-07 20:30N 38°26' W 009°07'0 0.0
2017-Dec-07 20:01N 38°26' W 009°07'0 0.0
2017-Dec-07 19:29N 38°26' W 009°07'0 0.0
2017-Dec-07 19:00N 38°26' W 009°07'0 0.0
2017-Dec-07 18:29N 38°26' W 009°07'0 0.0
2017-Dec-07 18:00N 38°26' W 009°07'0 0.0
2017-Dec-07 17:25N 38°26' W 009°07'0 0.0
2017-Dec-07 16:59N 38°26' W 009°07'2 4.7
2017-Dec-07 16:29N 38°24' W 009°05'4 7.1
2017-Dec-07 15:56N 38°21' W 009°04'4 7.3
2017-Dec-07 15:21N 38°17' W 009°02'2 7.0
2017-Dec-07 15:01N 38°14' W 009°01'4 7.3
2017-Dec-07 14:30N 38°11' W 009°00'5 1.2
2017-Dec-07 10:06N 38°06' W 008°60'0 0.3
2017-Dec-07 10:00N 38°06' W 008°60'0 0.2
2017-Dec-07 09:30N 38°06' W 008°60'0 0.7
2017-Dec-07 09:00N 38°06' W 008°59'0 0.1
2017-Dec-07 08:30N 38°06' W 008°59'0 0.1
2017-Dec-07 08:00N 38°06' W 008°59'0 0.1
2017-Dec-07 07:30N 38°06' W 008°59'0 0.2
2017-Dec-07 07:00N 38°06' W 008°59'0 0.4
2017-Dec-07 06:30N 38°06' W 008°59'0 0.4
2017-Dec-07 06:00N 38°05' W 008°59'0 0.3
2017-Dec-07 05:30N 38°05' W 008°59'0 0.5
2017-Dec-07 05:00N 38°05' W 008°59'0 0.5
2017-Dec-07 04:30N 38°05' W 008°59'1 0.6
2017-Dec-07 03:06N 38°06' W 008°59'1 6.5
2017-Dec-07 03:00N 38°07' W 008°60'3 6.8
2017-Dec-07 02:30N 38°10' W 009°01'4 7.0
2017-Dec-07 02:00N 38°13' W 009°03'7 4.0
2017-Dec-07 00:11N 38°20' W 009°04'0 1.1
2017-Dec-07 00:00N 38°20' W 009°04'0 0.3
2017-Dec-06 23:30N 38°20' W 009°04'0 0.6
2017-Dec-06 23:00N 38°21' W 009°04'1 0.8
2017-Dec-06 21:26N 38°20' W 009°06'0 1.1
2017-Dec-06 21:00N 38°20' W 009°06'  
Track history (hours):
 
Tides and Currents Weather Stations Pressure Air Temp Water Temp Dewpoint Dewpoint Depression Visibility Wind Speed Wind Dir Waves Ship Positions

Cruz Sagrada

Last reported at 2017-Dec-10 23:05 UTC. Time now 2017-Dec-11 19:14 UTC.
Position N 38°26' W 009°07'.

Length 18 m.

Type: Fishing. MMSI: 263290000.

Date/timePositionNaut miles runAvg speedWind from/ knotsBaromVisibWave heightAir tempDewpointWater temp
2017-Dec-10 23:05N 38°26' W 009°07'0 0.0
2017-Dec-10 22:47N 38°26' W 009°07'0 0.0
2017-Dec-10 22:30N 38°26' W 009°07'0 0.0
2017-Dec-10 21:53N 38°26' W 009°07'0 0.0
2017-Dec-10 21:29N 38°26' W 009°07'0 0.0
2017-Dec-10 20:58N 38°26' W 009°07'0 0.0
2017-Dec-10 20:29N 38°26' W 009°07'0 0.0
2017-Dec-10 19:55N 38°26' W 009°07'0 0.0
2017-Dec-10 19:29N 38°26' W 009°07'0 0.0
2017-Dec-10 18:59N 38°26' W 009°07'0 0.0
2017-Dec-10 18:30N 38°26' W 009°07'0 0.0
2017-Dec-10 17:59N 38°26' W 009°07'0 0.2
2017-Dec-10 17:30N 38°26' W 009°07'3 5.8
2017-Dec-10 16:59N 38°24' W 009°07'4 6.1
2017-Dec-10 16:23N 38°20' W 009°09'2 4.3
2017-Dec-10 16:00N 38°18' W 009°09'1 2.0
2017-Dec-10 15:30N 38°18' W 009°07'1 1.0
2017-Dec-10 14:57N 38°18' W 009°08'0 0.8
2017-Dec-10 14:30N 38°18' W 009°08'1 1.1
2017-Dec-10 13:57N 38°19' W 009°09'1 1.2
2017-Dec-10 13:30N 38°19' W 009°09'1 1.4
2017-Dec-10 12:53N 38°20' W 009°10'2 6.1
2017-Dec-10 12:29N 38°22' W 009°11'3 6.0
2017-Dec-10 12:00N 38°24' W 009°14'3 6.4
2017-Dec-10 11:29N 38°26' W 009°17'3 6.6
2017-Dec-10 11:00N 38°29' W 009°19'4 6.7
2017-Dec-10 10:29N 38°32' W 009°21'3 6.8
2017-Dec-10 10:00N 38°35' W 009°23'3 6.6
2017-Dec-10 09:30N 38°38' W 009°25'1 1.7
2017-Dec-10 09:00N 38°39' W 009°26'1 1.3
2017-Dec-10 08:30N 38°39' W 009°26'0 0.7
2017-Dec-10 08:00N 38°40' W 009°26'1 1.1
2017-Dec-10 07:30N 38°39' W 009°26'1 1.1
2017-Dec-10 07:01N 38°39' W 009°25'1 1.1
2017-Dec-10 06:30N 38°38' W 009°25'1 1.2
2017-Dec-10 06:00N 38°38' W 009°24'1 1.2
2017-Dec-10 05:31N 38°37' W 009°24'0 0.5
2017-Dec-10 05:00N 38°37' W 009°24'1 1.4
2017-Dec-10 04:30N 38°38' W 009°25'0 0.8
2017-Dec-10 04:00N 38°38' W 009°25'0 0.2
2017-Dec-10 03:29N 38°38' W 009°25'0 0.8
2017-Dec-10 03:00N 38°38' W 009°26'1 1.6
2017-Dec-10 02:30N 38°37' W 009°25'0 0.7
2017-Dec-10 02:00N 38°37' W 009°25'0 0.6
2017-Dec-10 01:30N 38°37' W 009°26'1 1.6
2017-Dec-10 01:00N 38°37' W 009°25'2 3.5
2017-Dec-10 00:30N 38°35' W 009°24'2 3.7
2017-Dec-10 00:00N 38°34' W 009°23'2 3.7
2017-Dec-09 23:30N 38°32' W 009°21'2 3.7
2017-Dec-09 23:00N 38°30' W 009°20'2 3.9
2017-Dec-09 22:30N 38°29' W 009°19'2 3.9
2017-Dec-09 22:00N 38°27' W 009°18'2 3.8
2017-Dec-09 21:27N 38°25' W 009°16'2 4.1
2017-Dec-09 20:59N 38°24' W 009°15'2 4.7
2017-Dec-09 20:30N 38°22' W 009°13'3 5.0
2017-Dec-09 20:00N 38°20' W 009°10'3 5.0
2017-Dec-09 19:22N 38°18' W 009°08'2 4.8
2017-Dec-09 19:00N 38°17' W 009°06'1 0.3
2017-Dec-09 14:10N 38°16' W 009°04'2 4.9
2017-Dec-09 13:48N 38°17' W 009°06'4 5.7
2017-Dec-09 13:08N 38°20' W 009°10'1 6.7
2017-Dec-09 12:56N 38°21' W 009°11'3 6.6
2017-Dec-09 12:30N 38°22' W 009°14'3 6.6
2017-Dec-09 12:00N 38°25' W 009°17'3 6.5
2017-Dec-09 11:30N 38°28' W 009°19'3 6.6
2017-Dec-09 11:00N 38°31' W 009°20'3 6.5
2017-Dec-09 10:30N 38°34' W 009°22'3 7.1
2017-Dec-09 10:00N 38°37' W 009°24'3 6.4
2017-Dec-09 09:30N 38°40' W 009°26'3 5.6
2017-Dec-09 09:00N 38°37' W 009°24'1 1.4
2017-Dec-09 08:30N 38°38' W 009°25'0 0.9
2017-Dec-09 08:00N 38°38' W 009°25'1 1.3
2017-Dec-09 07:30N 38°39' W 009°25'1 1.1
2017-Dec-09 07:00N 38°39' W 009°26'0 0.9
2017-Dec-09 06:30N 38°39' W 009°25'1 1.3
2017-Dec-09 06:00N 38°38' W 009°25'1 1.4
2017-Dec-09 05:30N 38°38' W 009°24'4 0.3
2017-Dec-08 14:47N 38°42' W 009°25'0 0.0
2017-Dec-08 14:30N 38°42' W 009°25'0 0.0
2017-Dec-08 13:59N 38°42' W 009°25'0 0.0
2017-Dec-08 13:30N 38°42' W 009°25'0 0.0
2017-Dec-08 13:00N 38°42' W 009°25'0 0.1
2017-Dec-08 12:30N 38°42' W 009°25'0 0.0
2017-Dec-08 12:00N 38°42' W 009°25'0 0.0
2017-Dec-08 11:30N 38°42' W 009°25'0 0.0
2017-Dec-08 11:00N 38°42' W 009°25'0 0.1
2017-Dec-08 10:30N 38°42' W 009°25'0 0.7
2017-Dec-08 10:00N 38°42' W 009°25'3 5.8
2017-Dec-08 09:30N 38°39' W 009°24'1 1.5
2017-Dec-08 09:00N 38°39' W 009°25'2 3.3
2017-Dec-08 08:30N 38°37' W 009°24'2 4.7
2017-Dec-08 08:00N 38°35' W 009°23'3 5.4
2017-Dec-08 07:29N 38°33' W 009°21'2 4.8
2017-Dec-08 07:00N 38°31' W 009°20'2 4.4
2017-Dec-08 06:29N 38°29' W 009°18'3 5.4
2017-Dec-08 06:00N 38°27' W 009°17'3 5.6
2017-Dec-08 05:30N 38°24' W 009°15'3 5.6
2017-Dec-08 04:59N 38°23' W 009°11'3 5.6
2017-Dec-08 04:30N 38°22' W 009°08'3 5.8
2017-Dec-08 04:00N 38°21' W 009°05'1 2.8
2017-Dec-08 03:30N 38°20' W 009°03'0 0.6
2017-Dec-08 03:00N 38°20' W 009°04'2 0.7
2017-Dec-07 23:50N 38°21' W 009°06'2 5.7
2017-Dec-07 23:31N 38°23' W 009°06'3 5.8
2017-Dec-07 23:00N 38°26' W 009°06'1 1.4
2017-Dec-07 22:30N 38°26' W 009°07'0 0.0
2017-Dec-07 22:00N 38°26' W 009°07'0 0.0
2017-Dec-07 21:31N 38°26' W 009°07'0 0.0
2017-Dec-07 21:00N 38°26' W 009°07'0 0.0
2017-Dec-07 20:30N 38°26' W 009°07'0 0.0
2017-Dec-07 20:01N 38°26' W 009°07'0 0.0
2017-Dec-07 19:29N 38°26' W 009°07'0 0.0
2017-Dec-07 19:00N 38°26' W 009°07'0 0.0
2017-Dec-07 18:29N 38°26' W 009°07'0 0.0
2017-Dec-07 18:00N 38°26' W 009°07'0 0.0
2017-Dec-07 17:25N 38°26' W 009°07'0 0.0
2017-Dec-07 16:59N 38°26' W 009°07'2 4.7
2017-Dec-07 16:29N 38°24' W 009°05'4 7.1
2017-Dec-07 15:56N 38°21' W 009°04'4 7.3
2017-Dec-07 15:21N 38°17' W 009°02'2 7.0
2017-Dec-07 15:01N 38°14' W 009°01'4 7.3
2017-Dec-07 14:30N 38°11' W 009°00'5 1.2
2017-Dec-07 10:06N 38°06' W 008°60'0 0.3
2017-Dec-07 10:00N 38°06' W 008°60'0 0.2
2017-Dec-07 09:30N 38°06' W 008°60'0 0.7
2017-Dec-07 09:00N 38°06' W 008°59'0 0.1
2017-Dec-07 08:30N 38°06' W 008°59'0 0.1
2017-Dec-07 08:00N 38°06' W 008°59'0 0.1
2017-Dec-07 07:30N 38°06' W 008°59'0 0.2
2017-Dec-07 07:00N 38°06' W 008°59'0 0.4
2017-Dec-07 06:30N 38°06' W 008°59'0 0.4
2017-Dec-07 06:00N 38°05' W 008°59'0 0.3
2017-Dec-07 05:30N 38°05' W 008°59'0 0.5
2017-Dec-07 05:00N 38°05' W 008°59'0 0.5
2017-Dec-07 04:30N 38°05' W 008°59'1 0.6
2017-Dec-07 03:06N 38°06' W 008°59'1 6.5
2017-Dec-07 03:00N 38°07' W 008°60'3 6.8
2017-Dec-07 02:30N 38°10' W 009°01'4 7.0
2017-Dec-07 02:00N 38°13' W 009°03'7 4.0
2017-Dec-07 00:11N 38°20' W 009°04'0 1.1
2017-Dec-07 00:00N 38°20' W 009°04'0 0.3
2017-Dec-06 23:30N 38°20' W 009°04'0 0.6
2017-Dec-06 23:00N 38°21' W 009°04'1 0.8
2017-Dec-06 21:26N 38°20' W 009°06'0 1.1
2017-Dec-06 21:00N 38°20' W 009°06'  

Dump ship's entire track history